createdAt,value
2022-10-14T00:00:17.978Z,38.93
2022-10-14T00:01:22.245Z,38.13
2022-10-14T00:02:24.595Z,37.00
2022-10-14T00:03:26.887Z,42.30
2022-10-14T00:04:29.479Z,41.05
2022-10-14T00:05:31.973Z,40.25
2022-10-14T00:06:34.653Z,41.01
2022-10-14T00:07:37.366Z,39.97
2022-10-14T00:08:40.277Z,42.95
2022-10-14T00:09:42.173Z,41.18
2022-10-14T00:10:44.169Z,41.31
2022-10-14T00:11:46.151Z,42.57
2022-10-14T00:12:48.198Z,40.43
2022-10-14T00:13:52.641Z,42.15
2022-10-14T00:14:55.386Z,41.31
2022-10-14T00:15:57.301Z,40.86
2022-10-14T00:16:59.300Z,41.27
2022-10-14T00:18:01.181Z,41.60
2022-10-14T00:19:05.167Z,40.69
2022-10-14T00:20:08.375Z,40.29
2022-10-14T00:21:10.418Z,40.94
2022-10-14T00:22:12.494Z,39.33
2022-10-14T00:23:14.389Z,40.75
2022-10-14T00:24:16.763Z,40.35
2022-10-14T00:25:18.649Z,39.81
2022-10-14T00:26:26.026Z,37.62
2022-10-14T00:27:27.944Z,38.94
2022-10-14T00:28:30.355Z,41.18
2022-10-14T00:29:32.454Z,39.03
2022-10-14T00:30:34.446Z,39.78
2022-10-14T00:31:36.484Z,39.35
2022-10-14T00:32:38.373Z,39.30
2022-10-14T00:33:40.474Z,38.11
2022-10-14T00:34:43.386Z,39.38
2022-10-14T00:35:53.995Z,40.04
2022-10-14T00:36:56.056Z,41.45
2022-10-14T00:37:58.656Z,39.94
2022-10-14T00:39:00.888Z,42.61
2022-10-14T00:40:04.672Z,40.31
2022-10-14T00:41:07.084Z,41.74
2022-10-14T00:42:14.645Z,39.91
2022-10-14T00:43:16.688Z,38.64
2022-10-14T00:44:22.660Z,38.43
2022-10-14T00:45:24.865Z,39.70
2022-10-14T00:46:30.386Z,37.65
2022-10-14T00:47:33.159Z,39.52
2022-10-14T00:48:35.433Z,39.13
2022-10-14T00:49:40.667Z,38.48
2022-10-14T00:50:44.720Z,38.53
2022-10-14T00:51:50.416Z,39.76
2022-10-14T00:52:52.540Z,38.81
2022-10-14T00:53:55.522Z,37.52
2022-10-14T00:55:06.809Z,39.39
2022-10-14T00:56:10.421Z,37.83
2022-10-14T00:57:13.462Z,37.62
2022-10-14T00:58:15.905Z,38.70
2022-10-14T00:59:18.449Z,37.79
2022-10-14T01:00:21.978Z,36.20
2022-10-14T01:01:24.375Z,35.93
2022-10-14T01:02:26.497Z,37.50
2022-10-14T01:03:28.519Z,37.63
2022-10-14T01:04:30.968Z,38.50
2022-10-14T01:05:36.637Z,36.59
2022-10-14T01:06:48.145Z,35.72
2022-10-14T01:08:06.060Z,35.91
2022-10-14T01:09:26.518Z,35.61
2022-10-14T01:10:35.397Z,37.08
2022-10-14T01:12:23.466Z,36.35
2022-10-14T01:14:26.463Z,36.84
2022-10-14T01:15:32.286Z,37.19
2022-10-14T01:16:46.736Z,39.22
2022-10-14T01:18:04.210Z,40.19
2022-10-14T01:19:10.173Z,40.33
2022-10-14T01:20:39.323Z,43.29
2022-10-14T01:22:03.120Z,44.98
2022-10-14T01:23:11.855Z,44.66
2022-10-14T01:24:23.608Z,42.63
2022-10-14T01:25:46.503Z,41.57
2022-10-14T01:26:58.345Z,40.86
2022-10-14T01:28:30.190Z,40.69
2022-10-14T01:30:08.207Z,40.03
2022-10-14T01:31:16.748Z,38.77
2022-10-14T01:36:11.031Z,39.68
2022-10-14T01:37:16.819Z,40.44
2022-10-14T01:38:22.493Z,40.89
2022-10-14T01:39:34.500Z,40.89
2022-10-14T01:40:49.616Z,39.39
2022-10-14T01:42:07.194Z,40.69
2022-10-14T01:43:11.846Z,39.92
2022-10-14T01:44:17.454Z,39.39
2022-10-14T01:45:22.802Z,39.51
2022-10-14T01:46:26.905Z,38.68
2022-10-14T01:47:32.287Z,41.42
2022-10-14T01:48:37.902Z,42.03
2022-10-14T01:49:43.597Z,41.66
2022-10-14T01:50:49.252Z,42.54
2022-10-14T01:51:54.936Z,40.16
2022-10-14T01:53:13.036Z,40.31
2022-10-14T01:54:18.754Z,39.81
2022-10-14T01:55:24.460Z,39.71
2022-10-14T01:56:30.356Z,39.97
2022-10-14T01:57:35.562Z,40.51
2022-10-14T01:58:39.853Z,42.08
2022-10-14T01:59:43.485Z,37.84
2022-10-14T02:00:45.654Z,42.11
2022-10-14T02:01:47.689Z,40.68
2022-10-14T02:02:49.901Z,37.83
2022-10-14T02:03:51.784Z,39.19
2022-10-14T02:04:53.659Z,39.29
2022-10-14T02:06:02.427Z,38.83
2022-10-14T02:07:17.267Z,39.82
2022-10-14T02:08:35.277Z,40.00
2022-10-14T02:10:08.244Z,40.98
2022-10-14T02:11:17.012Z,39.80
2022-10-14T02:12:28.754Z,41.92
2022-10-14T02:13:54.588Z,39.58
2022-10-14T02:15:15.180Z,40.87
2022-10-14T02:16:32.875Z,40.63
2022-10-14T02:17:44.790Z,40.57
2022-10-14T02:19:22.248Z,41.58
2022-10-14T02:20:31.054Z,37.94
2022-10-14T02:21:39.542Z,35.81
2022-10-14T02:22:45.435Z,35.26
2022-10-14T02:23:51.420Z,35.05
2022-10-14T02:24:57.154Z,36.49
2022-10-14T02:26:01.249Z,33.81
2022-10-14T02:27:06.980Z,32.48
2022-10-14T02:28:12.663Z,29.59
2022-10-14T02:29:17.504Z,31.14
2022-10-14T02:30:20.983Z,32.54
2022-10-14T02:31:25.847Z,29.50
2022-10-14T02:32:29.012Z,30.39
2022-10-14T02:33:34.696Z,29.01
2022-10-14T02:34:37.444Z,32.28
2022-10-14T02:35:41.380Z,34.67
2022-10-14T02:36:45.711Z,35.02
2022-10-14T02:37:49.380Z,37.28
2022-10-14T02:38:54.811Z,36.67
2022-10-14T02:40:15.507Z,37.25
2022-10-14T02:41:20.466Z,37.50
2022-10-14T02:42:22.777Z,36.32
2022-10-14T02:43:25.396Z,36.83
2022-10-14T02:44:27.483Z,34.81
2022-10-14T02:45:29.575Z,36.08
2022-10-14T02:46:32.949Z,34.23
2022-10-14T02:47:34.971Z,34.91
2022-10-14T02:48:37.366Z,37.60
2022-10-14T02:49:39.288Z,33.67
2022-10-14T02:50:41.692Z,33.72
2022-10-14T02:51:43.779Z,36.51
2022-10-14T02:52:46.508Z,34.43
2022-10-14T02:53:48.581Z,34.57
2022-10-14T02:54:50.468Z,31.25
2022-10-14T02:55:52.329Z,33.49
2022-10-14T02:56:54.608Z,33.85
2022-10-14T02:57:56.661Z,35.35
2022-10-14T02:58:59.200Z,32.02
2022-10-14T03:00:01.409Z,30.71
2022-10-14T03:01:03.351Z,29.68
2022-10-14T03:02:06.702Z,28.93
2022-10-14T03:03:09.105Z,30.06
2022-10-14T03:04:11.078Z,29.18
2022-10-14T03:05:13.119Z,29.46
2022-10-14T03:06:15.338Z,30.15
2022-10-14T03:07:17.436Z,31.34
2022-10-14T03:08:19.482Z,30.54
2022-10-14T03:09:21.339Z,30.41
2022-10-14T03:10:23.536Z,31.58
2022-10-14T03:11:25.413Z,29.82
2022-10-14T03:12:27.319Z,29.93
2022-10-14T03:13:29.732Z,30.82
2022-10-14T03:14:31.943Z,29.93
2022-10-14T03:15:33.936Z,30.57
2022-10-14T03:16:36.031Z,31.43
2022-10-14T03:17:38.020Z,33.01
2022-10-14T03:18:39.905Z,33.75
2022-10-14T03:19:42.324Z,34.18
2022-10-14T03:20:45.488Z,33.96
2022-10-14T03:21:47.455Z,35.49
2022-10-14T03:22:49.565Z,33.63
2022-10-14T03:23:51.518Z,35.66
2022-10-14T03:24:53.733Z,35.91
2022-10-14T03:25:55.850Z,34.93
2022-10-14T03:26:58.150Z,35.67
2022-10-14T03:28:00.303Z,35.01
2022-10-14T03:29:02.189Z,37.12
2022-10-14T03:30:05.302Z,35.61
2022-10-14T03:31:07.496Z,36.70
2022-10-14T03:32:09.440Z,36.70
2022-10-14T03:33:14.755Z,35.94
2022-10-14T03:34:15.140Z,37.55
2022-10-14T03:35:17.264Z,34.73
2022-10-14T03:36:19.353Z,37.52
2022-10-14T03:37:21.306Z,37.46
2022-10-14T03:38:23.424Z,38.45
2022-10-14T03:39:25.320Z,36.39
2022-10-14T03:40:27.569Z,35.86
2022-10-14T03:41:29.812Z,35.78
2022-10-14T03:42:31.702Z,36.95
2022-10-14T03:43:33.891Z,36.28
2022-10-14T03:44:35.791Z,35.04
2022-10-14T03:45:37.920Z,36.94
2022-10-14T03:46:40.146Z,34.50
2022-10-14T03:47:42.044Z,35.20
2022-10-14T03:48:44.230Z,35.53
2022-10-14T03:49:46.354Z,34.17
2022-10-14T03:50:48.488Z,33.45
2022-10-14T03:51:50.725Z,35.27
2022-10-14T03:52:55.594Z,32.81
2022-10-14T03:53:56.428Z,33.48
2022-10-14T03:54:58.870Z,34.73
2022-10-14T03:56:01.086Z,32.24
2022-10-14T03:57:03.139Z,33.24
2022-10-14T03:58:05.229Z,32.17
2022-10-14T03:59:07.448Z,33.37
2022-10-14T04:00:12.936Z,32.95
2022-10-14T04:01:15.170Z,33.79
2022-10-14T04:02:17.062Z,33.57
2022-10-14T04:03:19.159Z,30.81
2022-10-14T04:04:21.075Z,32.97
2022-10-14T04:05:22.945Z,32.13
2022-10-14T04:06:24.972Z,32.76
2022-10-14T04:07:27.184Z,32.76
2022-10-14T04:08:29.176Z,31.26
2022-10-14T04:09:31.240Z,31.71
2022-10-14T04:10:33.777Z,31.53
2022-10-14T04:11:35.780Z,31.46
2022-10-14T04:12:37.749Z,30.61
2022-10-14T04:13:39.953Z,32.81
2022-10-14T04:14:41.879Z,30.57
2022-10-14T04:15:43.774Z,32.37
2022-10-14T04:16:49.635Z,30.84
2022-10-14T04:17:49.859Z,30.42
2022-10-14T04:18:52.490Z,29.00
2022-10-14T04:19:54.430Z,28.35
2022-10-14T04:21:05.558Z,28.47
2022-10-14T04:22:07.641Z,27.22
2022-10-14T04:23:09.655Z,26.80
2022-10-14T04:24:12.135Z,28.50
2022-10-14T04:25:14.202Z,27.19
2022-10-14T04:26:16.927Z,25.69
2022-10-14T04:27:18.793Z,25.61
2022-10-14T04:28:20.943Z,24.88
2022-10-14T04:29:23.375Z,23.80
2022-10-14T04:30:25.581Z,23.17
2022-10-14T04:31:27.688Z,22.76
2022-10-14T04:32:29.663Z,23.51
2022-10-14T04:33:31.551Z,22.35
2022-10-14T04:34:33.563Z,22.39
2022-10-14T04:35:35.489Z,22.13
2022-10-14T04:36:37.914Z,21.77
2022-10-14T04:37:40.232Z,22.61
2022-10-14T04:38:42.824Z,21.27
2022-10-14T04:39:45.380Z,20.97
2022-10-14T04:40:47.389Z,19.86
2022-10-14T04:41:49.297Z,21.14
2022-10-14T04:42:55.569Z,20.85
2022-10-14T04:43:58.755Z,19.39
2022-10-14T04:45:02.139Z,20.54
2022-10-14T04:46:04.426Z,20.61
2022-10-14T04:47:06.352Z,20.13
2022-10-14T04:48:08.403Z,18.79
2022-10-14T04:49:13.276Z,19.79
2022-10-14T04:50:17.382Z,18.94
2022-10-14T04:51:19.424Z,17.96
2022-10-14T04:52:23.624Z,17.77
2022-10-14T04:53:25.913Z,17.68
2022-10-14T04:54:27.796Z,17.60
2022-10-14T04:55:29.754Z,15.82
2022-10-14T04:56:31.741Z,16.25
2022-10-14T04:57:33.621Z,16.97
2022-10-14T04:58:35.735Z,16.43
2022-10-14T04:59:37.655Z,17.65
2022-10-14T05:00:41.525Z,17.35
2022-10-14T05:01:43.499Z,16.99
2022-10-14T05:02:45.850Z,17.13
2022-10-14T05:03:47.866Z,16.43
2022-10-14T05:04:49.742Z,17.27
2022-10-14T05:05:51.725Z,16.31
2022-10-14T05:06:53.809Z,17.17
2022-10-14T05:08:04.266Z,18.07
2022-10-14T05:09:07.323Z,16.67
2022-10-14T05:10:10.327Z,17.03
2022-10-14T05:11:13.472Z,16.60
2022-10-14T05:12:15.458Z,15.69
2022-10-14T05:13:18.070Z,16.21
2022-10-14T05:14:19.956Z,16.09
2022-10-14T05:15:22.278Z,15.82
2022-10-14T05:16:24.416Z,16.44
2022-10-14T05:17:26.510Z,14.37
2022-10-14T05:18:28.588Z,15.95
2022-10-14T05:19:30.608Z,15.08
2022-10-14T05:20:32.750Z,15.81
2022-10-14T05:21:34.696Z,14.60
2022-10-14T05:22:36.816Z,15.34
2022-10-14T05:23:38.818Z,14.81
2022-10-14T05:24:40.908Z,14.02
2022-10-14T05:25:42.810Z,14.78
2022-10-14T05:26:44.878Z,15.37
2022-10-14T05:27:46.773Z,15.51
2022-10-14T05:28:51.335Z,13.22
2022-10-14T05:29:53.601Z,15.41
2022-10-14T05:30:55.614Z,14.44
2022-10-14T05:31:57.528Z,14.51
2022-10-14T05:32:59.411Z,14.34
2022-10-14T05:34:01.389Z,13.50
2022-10-14T05:35:04.311Z,13.85
2022-10-14T05:36:07.629Z,14.70
2022-10-14T05:37:09.616Z,13.01
2022-10-14T05:38:13.227Z,14.15
2022-10-14T05:39:18.369Z,14.37
2022-10-14T05:40:21.908Z,13.62
2022-10-14T05:41:27.064Z,14.67
2022-10-14T05:42:29.247Z,15.69
2022-10-14T05:43:32.837Z,14.86
2022-10-14T05:44:35.174Z,14.29
2022-10-14T05:45:37.046Z,15.20
2022-10-14T05:46:39.071Z,15.95
2022-10-14T05:47:43.142Z,15.06
2022-10-14T05:48:45.053Z,16.16
2022-10-14T05:49:46.957Z,15.41
2022-10-14T05:50:49.061Z,15.17
2022-10-14T05:51:51.146Z,15.04
2022-10-14T05:52:53.017Z,15.95
2022-10-14T05:53:55.011Z,15.50
2022-10-14T05:54:56.882Z,15.41
2022-10-14T05:56:04.716Z,15.12
2022-10-14T05:57:06.777Z,15.26
2022-10-14T05:58:09.030Z,14.83
2022-10-14T05:59:13.026Z,13.60
2022-10-14T06:00:15.833Z,13.77
2022-10-14T06:01:17.722Z,14.89
2022-10-14T06:02:19.966Z,13.63
2022-10-14T06:03:22.264Z,13.45
2022-10-14T06:04:24.392Z,12.90
2022-10-14T06:05:26.997Z,12.19
2022-10-14T06:06:29.293Z,12.94
2022-10-14T06:07:31.339Z,13.02
2022-10-14T06:08:33.336Z,12.21
2022-10-14T06:09:36.505Z,12.55
2022-10-14T06:10:38.514Z,13.43
2022-10-14T06:11:40.698Z,12.53
2022-10-14T06:12:42.580Z,12.02
2022-10-14T06:13:44.488Z,12.63
2022-10-14T06:14:46.399Z,14.02
2022-10-14T06:15:48.422Z,13.28
2022-10-14T06:16:50.793Z,13.25
2022-10-14T06:17:52.881Z,13.74
2022-10-14T06:18:55.094Z,12.52
2022-10-14T06:19:56.995Z,12.06
2022-10-14T06:20:59.933Z,11.21
2022-10-14T06:22:01.826Z,11.73
2022-10-14T06:23:04.115Z,12.36
2022-10-14T06:24:06.722Z,11.92
2022-10-14T06:25:09.019Z,11.37
2022-10-14T06:26:12.219Z,13.48
2022-10-14T06:27:14.103Z,13.83
2022-10-14T06:28:16.018Z,13.50
2022-10-14T06:29:18.177Z,13.65
2022-10-14T06:30:20.880Z,11.73
2022-10-14T06:31:23.237Z,11.57
2022-10-14T06:32:25.312Z,11.49
2022-10-14T06:33:30.790Z,10.48
2022-10-14T06:34:34.353Z,10.33
2022-10-14T06:35:36.362Z,9.98
2022-10-14T06:36:38.361Z,9.11
2022-10-14T06:37:40.352Z,9.43
2022-10-14T06:38:42.599Z,8.59
2022-10-14T06:39:44.508Z,9.49
2022-10-14T06:40:52.286Z,9.90
2022-10-14T06:41:54.264Z,9.57
2022-10-14T06:42:57.966Z,10.14
2022-10-14T06:44:00.038Z,8.88
2022-10-14T06:45:02.149Z,9.76
2022-10-14T06:46:04.847Z,9.80
2022-10-14T06:47:06.996Z,8.59
2022-10-14T06:48:09.015Z,9.03
2022-10-14T06:49:11.128Z,9.27
2022-10-14T06:50:13.116Z,9.69
2022-10-14T06:51:15.404Z,9.98
2022-10-14T06:52:18.108Z,9.33
2022-10-14T06:53:21.152Z,9.48
2022-10-14T06:54:23.333Z,9.02
2022-10-14T06:55:25.540Z,9.77
2022-10-14T06:56:27.570Z,9.83
2022-10-14T06:57:29.549Z,10.21
2022-10-14T06:58:32.482Z,9.56
2022-10-14T06:59:34.443Z,9.71
2022-10-14T07:00:36.622Z,9.05
2022-10-14T07:01:38.873Z,10.12
2022-10-14T07:02:41.128Z,9.89
2022-10-14T07:03:43.066Z,9.97
2022-10-14T07:04:45.057Z,9.66
2022-10-14T07:05:47.096Z,9.93
2022-10-14T07:06:49.282Z,9.73
2022-10-14T07:07:51.355Z,9.33
2022-10-14T07:08:53.302Z,9.19
2022-10-14T07:09:55.296Z,9.40
2022-10-14T07:10:57.760Z,9.11
2022-10-14T07:11:59.974Z,9.25
2022-10-14T07:13:02.375Z,9.05
2022-10-14T07:14:04.284Z,8.49
2022-10-14T07:15:07.426Z,9.20
2022-10-14T07:16:09.745Z,7.90
2022-10-14T07:17:13.021Z,8.61
2022-10-14T07:18:15.387Z,9.13
2022-10-14T07:19:17.364Z,8.99
2022-10-14T07:20:19.411Z,8.90
2022-10-14T07:21:21.467Z,9.11
2022-10-14T07:22:23.844Z,8.73
2022-10-14T07:23:26.187Z,8.41
2022-10-14T07:24:28.216Z,8.83
2022-10-14T07:25:30.299Z,9.40
2022-10-14T07:26:32.586Z,8.69
2022-10-14T07:27:34.767Z,9.22
2022-10-14T07:28:36.847Z,9.03
2022-10-14T07:29:38.894Z,8.11
2022-10-14T07:30:41.097Z,8.47
2022-10-14T07:31:43.589Z,8.37
2022-10-14T07:32:45.691Z,9.25
2022-10-14T07:33:47.803Z,8.23
2022-10-14T07:34:51.338Z,8.95
2022-10-14T07:35:53.526Z,7.97
2022-10-14T07:36:55.544Z,7.94
2022-10-14T07:37:58.667Z,7.70
2022-10-14T07:39:00.880Z,8.53
2022-10-14T07:40:04.780Z,7.83
2022-10-14T07:41:09.989Z,8.23
2022-10-14T07:42:12.031Z,8.03
2022-10-14T07:43:14.151Z,7.98
2022-10-14T07:44:16.548Z,8.12
2022-10-14T07:45:18.552Z,7.82
2022-10-14T07:46:23.472Z,8.33
2022-10-14T07:47:25.393Z,8.18
2022-10-14T07:48:38.496Z,7.91
2022-10-14T07:49:33.715Z,7.78
2022-10-14T07:50:35.713Z,7.56
2022-10-14T07:51:38.853Z,7.64
2022-10-14T07:52:40.745Z,8.23
2022-10-14T07:53:42.682Z,7.31
2022-10-14T07:54:45.363Z,8.19
2022-10-14T07:55:47.357Z,7.53
2022-10-14T07:56:49.860Z,7.84
2022-10-14T07:57:51.756Z,8.41
2022-10-14T07:58:54.854Z,7.43
2022-10-14T07:59:56.843Z,6.84
2022-10-14T08:00:59.041Z,6.41
2022-10-14T08:02:01.328Z,7.37
2022-10-14T08:03:03.579Z,6.68
2022-10-14T08:04:05.472Z,6.87
2022-10-14T08:05:32.980Z,6.20
2022-10-14T08:06:12.923Z,6.10
2022-10-14T08:07:14.858Z,6.46
2022-10-14T08:08:17.916Z,5.86
2022-10-14T08:09:20.541Z,6.08
2022-10-14T08:10:22.852Z,5.28
2022-10-14T08:11:27.356Z,5.68
2022-10-14T08:12:29.726Z,5.38
2022-10-14T08:13:32.715Z,6.01
2022-10-14T08:14:34.625Z,4.75
2022-10-14T08:15:39.245Z,4.51
2022-10-14T08:16:41.271Z,4.61
2022-10-14T08:17:43.605Z,4.17
2022-10-14T08:18:47.263Z,4.86
2022-10-14T08:19:50.251Z,4.42
2022-10-14T08:20:52.671Z,5.68
2022-10-14T08:21:54.558Z,4.35
2022-10-14T08:22:56.459Z,4.81
2022-10-14T08:23:58.639Z,3.79
2022-10-14T08:25:00.508Z,4.87
2022-10-14T08:26:03.456Z,4.58
2022-10-14T08:27:05.383Z,4.62
2022-10-14T08:28:07.909Z,4.25
2022-10-14T08:29:10.711Z,4.47
2022-10-14T08:30:12.895Z,4.86
2022-10-14T08:31:17.167Z,5.19
2022-10-14T08:32:19.387Z,4.48
2022-10-14T08:33:21.692Z,4.08
2022-10-14T08:34:23.772Z,4.24
2022-10-14T08:35:25.805Z,3.91
2022-10-14T08:36:28.179Z,3.86
2022-10-14T08:37:30.139Z,3.41
2022-10-14T08:38:32.426Z,3.42
2022-10-14T08:39:34.338Z,4.40
2022-10-14T08:41:15.175Z,4.19
2022-10-14T08:42:24.338Z,3.76
2022-10-14T08:43:47.158Z,3.99
2022-10-14T08:44:52.835Z,3.41
2022-10-14T08:45:58.526Z,3.59
2022-10-14T08:47:04.206Z,3.62
2022-10-14T08:48:12.772Z,4.52
2022-10-14T08:49:40.019Z,3.64
2022-10-14T08:52:10.767Z,3.98
2022-10-14T08:53:25.956Z,3.62
2022-10-14T08:54:43.192Z,4.01
2022-10-14T08:55:48.499Z,3.35
2022-10-14T08:56:51.962Z,2.62
2022-10-14T08:58:00.421Z,3.09
2022-10-14T08:59:09.151Z,2.39
2022-10-14T09:00:13.371Z,3.21
2022-10-14T09:01:19.472Z,3.29
2022-10-14T09:02:45.886Z,3.23
2022-10-14T09:03:48.816Z,3.26
2022-10-14T09:04:50.903Z,2.93
2022-10-14T09:05:58.795Z,3.05
2022-10-14T09:07:02.527Z,3.35
2022-10-14T09:08:05.432Z,3.49
2022-10-14T09:09:28.160Z,3.06
2022-10-14T09:10:33.460Z,3.03
2022-10-14T09:11:42.070Z,2.87
2022-10-14T09:12:44.644Z,3.02
2022-10-14T09:13:50.395Z,2.67
2022-10-14T09:15:05.273Z,3.08
2022-10-14T09:17:24.935Z,2.59
2022-10-14T09:18:36.261Z,2.53
2022-10-14T09:20:43.203Z,3.17
2022-10-14T09:21:53.894Z,2.66
2022-10-14T09:23:05.440Z,2.33
2022-10-14T09:24:17.212Z,2.17
2022-10-14T09:25:19.222Z,1.64
2022-10-14T09:26:21.198Z,2.00
2022-10-14T09:27:23.923Z,2.25
2022-10-14T09:28:42.063Z,1.88
2022-10-14T09:29:56.910Z,1.76
2022-10-14T09:30:59.081Z,1.68
2022-10-14T09:32:07.230Z,2.09
2022-10-14T09:33:12.968Z,1.86
2022-10-14T09:34:20.270Z,1.77
2022-10-14T09:35:32.224Z,2.19
2022-10-14T09:36:34.344Z,2.57
2022-10-14T09:37:36.551Z,2.10
2022-10-14T09:38:38.651Z,1.70
2022-10-14T09:39:41.113Z,1.31
2022-10-14T09:40:46.592Z,1.91
2022-10-14T09:41:52.297Z,1.98
2022-10-14T09:43:06.846Z,1.69
2022-10-14T09:44:18.953Z,1.80
2022-10-14T09:45:23.613Z,1.79
2022-10-14T09:46:25.913Z,1.61
2022-10-14T09:47:28.430Z,1.77
2022-10-14T09:48:45.875Z,1.88
2022-10-14T09:49:48.112Z,1.56
2022-10-14T09:50:53.921Z,1.65
2022-10-14T09:51:56.749Z,1.43
2022-10-14T09:53:09.252Z,1.62
2022-10-14T09:54:12.536Z,1.26
2022-10-14T09:55:18.208Z,1.37
2022-10-14T09:56:41.588Z,1.48
2022-10-14T09:57:42.023Z,1.33
2022-10-14T09:58:47.126Z,1.46
2022-10-14T09:59:52.719Z,1.61
2022-10-14T10:00:56.894Z,1.73
2022-10-14T10:02:02.298Z,1.34
2022-10-14T10:03:05.416Z,1.80
2022-10-14T10:04:32.663Z,2.08
2022-10-14T10:05:35.571Z,1.66
2022-10-14T10:06:41.349Z,1.76
2022-10-14T10:07:43.477Z,2.17
2022-10-14T10:08:58.880Z,1.75
2022-10-14T10:10:04.077Z,1.78
2022-10-14T10:12:38.813Z,1.73
2022-10-14T10:13:43.960Z,1.45
2022-10-14T10:14:49.640Z,1.70
2022-10-14T10:15:58.324Z,1.57
2022-10-14T10:17:13.289Z,1.81
2022-10-14T10:18:18.989Z,1.84
2022-10-14T10:19:27.456Z,2.30
2022-10-14T10:20:30.366Z,1.81
2022-10-14T10:21:32.522Z,1.75
2022-10-14T10:22:34.820Z,1.65
2022-10-14T10:23:41.289Z,1.99
2022-10-14T10:24:46.304Z,1.58
2022-10-14T10:25:48.531Z,1.45
2022-10-14T10:26:51.049Z,1.81
2022-10-14T10:27:56.647Z,2.37
2022-10-14T10:29:02.278Z,1.88
2022-10-14T10:30:19.884Z,1.83
2022-10-14T10:31:29.051Z,2.04
2022-10-14T10:32:37.863Z,2.22
2022-10-14T10:33:52.574Z,2.31
2022-10-14T10:35:07.495Z,1.98
2022-10-14T10:36:14.498Z,1.91
2022-10-14T10:37:38.161Z,1.72
2022-10-14T10:39:18.900Z,2.21
2022-10-14T10:40:27.735Z,1.63
2022-10-14T10:42:02.389Z,1.68
2022-10-14T10:43:08.441Z,1.49
2022-10-14T10:44:16.917Z,1.68
2022-10-14T10:45:51.912Z,1.69
2022-10-14T10:47:04.006Z,1.62
2022-10-14T10:48:15.473Z,1.96
2022-10-14T10:49:47.444Z,1.44
2022-10-14T10:50:53.397Z,1.64
2022-10-14T10:53:21.102Z,1.88
2022-10-14T10:54:35.341Z,1.94
2022-10-14T10:55:58.927Z,1.54
2022-10-14T10:57:11.446Z,1.51
2022-10-14T10:58:37.310Z,1.51
2022-10-14T10:59:48.531Z,1.67
2022-10-14T11:02:21.169Z,1.83
2022-10-14T11:03:30.373Z,1.58
2022-10-14T11:04:57.033Z,1.64
2022-10-14T11:06:30.499Z,1.72
2022-10-14T11:07:45.294Z,1.49
2022-10-14T11:08:56.922Z,1.82
2022-10-14T11:10:15.186Z,1.80
2022-10-14T11:11:42.640Z,1.72
2022-10-14T11:12:54.270Z,1.60
2022-10-14T11:14:12.050Z,1.88
2022-10-14T11:15:33.238Z,1.53
2022-10-14T11:16:57.371Z,2.98
2022-10-14T11:18:06.366Z,1.76
2022-10-14T11:19:21.157Z,1.58
2022-10-14T11:20:45.214Z,1.94
2022-10-14T11:22:21.902Z,1.62
2022-10-14T11:23:50.796Z,1.76
2022-10-14T11:25:16.592Z,2.07
2022-10-14T11:26:39.282Z,1.88
2022-10-14T11:27:45.063Z,2.34
2022-10-14T11:29:03.279Z,2.60
2022-10-14T11:30:17.879Z,6.21
2022-10-14T11:31:35.844Z,2.86
2022-10-14T11:32:41.521Z,1.66
2022-10-14T11:34:20.653Z,1.47
2022-10-14T11:35:29.448Z,1.59
2022-10-14T11:36:41.265Z,1.72
2022-10-14T11:38:06.769Z,1.66
2022-10-14T11:39:30.683Z,2.05
2022-10-14T11:40:55.529Z,2.23
2022-10-14T11:43:24.878Z,1.21
2022-10-14T11:45:42.509Z,1.12
2022-10-14T11:46:48.286Z,1.42
2022-10-14T11:47:52.801Z,1.52
2022-10-14T11:49:01.228Z,1.56
2022-10-14T11:50:07.171Z,2.03
2022-10-14T11:51:12.933Z,1.76
2022-10-14T11:52:21.519Z,1.93
2022-10-14T11:53:46.627Z,1.42
2022-10-14T11:54:52.369Z,2.18
2022-10-14T11:56:04.016Z,2.15
2022-10-14T11:57:25.287Z,1.63
2022-10-14T11:58:30.523Z,1.72
2022-10-14T12:00:02.033Z,1.70
2022-10-14T12:01:17.794Z,4.20
2022-10-14T12:02:29.457Z,4.64
2022-10-14T12:03:38.240Z,2.73
2022-10-14T12:04:43.861Z,2.46
2022-10-14T12:05:52.621Z,3.27
2022-10-14T12:07:04.589Z,2.79
2022-10-14T12:08:30.419Z,2.30
2022-10-14T12:09:41.095Z,1.68
2022-10-14T12:11:50.790Z,1.75
2022-10-14T12:12:55.104Z,2.27
2022-10-14T12:14:22.286Z,2.14
2022-10-14T12:15:26.244Z,2.38
2022-10-14T12:16:29.007Z,2.15
2022-10-14T12:17:37.584Z,2.57
2022-10-14T12:18:41.770Z,3.09
2022-10-14T12:19:44.177Z,2.02
2022-10-14T12:21:02.117Z,1.93
2022-10-14T12:22:07.841Z,1.98
2022-10-14T12:23:13.521Z,1.81
2022-10-14T12:24:22.351Z,1.40
2022-10-14T12:25:27.984Z,2.16
2022-10-14T12:26:39.116Z,1.92
2022-10-14T12:27:41.434Z,1.49
2022-10-14T12:28:43.877Z,1.37
2022-10-14T12:29:49.068Z,1.39
2022-10-14T12:30:51.099Z,1.59
2022-10-14T12:32:08.992Z,1.50
2022-10-14T12:33:14.077Z,1.37
2022-10-14T12:34:33.265Z,1.43
2022-10-14T12:35:56.119Z,1.24
2022-10-14T12:36:58.196Z,1.89
2022-10-14T12:38:02.548Z,1.61
2022-10-14T12:39:20.307Z,2.42
2022-10-14T12:40:25.824Z,4.86
2022-10-14T12:41:40.049Z,4.91
2022-10-14T12:42:45.725Z,3.27
2022-10-14T12:44:03.323Z,1.92
2022-10-14T12:45:24.099Z,1.24
2022-10-14T12:46:26.405Z,1.70
2022-10-14T12:47:34.378Z,1.96
2022-10-14T12:48:40.458Z,2.92
2022-10-14T12:49:46.220Z,10.80
2022-10-14T12:50:51.518Z,19.11
2022-10-14T12:51:56.294Z,20.29
2022-10-14T12:53:01.624Z,10.39
2022-10-14T12:54:07.305Z,6.17
2022-10-14T12:55:21.634Z,3.52
2022-10-14T12:56:36.592Z,2.25
2022-10-14T12:57:41.646Z,2.38
2022-10-14T12:58:58.544Z,1.74
2022-10-14T13:00:03.791Z,1.62
2022-10-14T13:01:15.562Z,1.65
2022-10-14T13:02:39.932Z,1.32
2022-10-14T13:03:45.388Z,1.51
2022-10-14T13:06:27.106Z,1.34
2022-10-14T13:07:40.073Z,1.19
2022-10-14T13:08:36.920Z,1.53
2022-10-14T13:09:38.934Z,1.41
2022-10-14T13:10:46.790Z,1.23
2022-10-14T13:11:57.431Z,1.47
2022-10-14T13:12:59.848Z,1.60
2022-10-14T13:14:01.951Z,1.56
2022-10-14T13:15:16.746Z,1.21
2022-10-14T13:16:28.833Z,1.13
2022-10-14T13:17:45.610Z,1.42
2022-10-14T13:18:53.610Z,1.26
2022-10-14T13:19:55.982Z,1.68
2022-10-14T13:20:58.380Z,1.64
2022-10-14T13:22:05.124Z,1.62
2022-10-14T13:23:29.498Z,1.36
2022-10-14T13:24:34.932Z,1.27
2022-10-14T13:25:36.856Z,1.43
2022-10-14T13:26:42.691Z,1.27
2022-10-14T13:27:54.232Z,1.66
2022-10-14T13:29:00.002Z,1.26
2022-10-14T13:30:17.824Z,1.33
2022-10-14T13:31:23.506Z,0.99
2022-10-14T13:32:32.351Z,1.31
2022-10-14T13:33:38.555Z,1.07
2022-10-14T13:34:52.309Z,1.48
2022-10-14T13:36:03.756Z,1.47
2022-10-14T13:37:18.436Z,1.66
2022-10-14T13:38:22.889Z,1.24
2022-10-14T13:39:25.428Z,1.34
2022-10-14T13:40:49.349Z,1.58
2022-10-14T13:41:51.285Z,1.38
2022-10-14T13:42:58.898Z,1.85
2022-10-14T13:44:01.942Z,2.37
2022-10-14T13:45:07.857Z,2.36
2022-10-14T13:46:16.884Z,1.63
2022-10-14T13:47:21.525Z,1.31
2022-10-14T13:49:46.407Z,1.21
2022-10-14T13:50:51.383Z,1.09
2022-10-14T13:52:09.099Z,1.24
2022-10-14T13:53:17.273Z,1.15
2022-10-14T13:54:25.464Z,1.59
2022-10-14T13:55:27.476Z,1.53
2022-10-14T13:56:31.823Z,1.31
2022-10-14T13:58:11.409Z,1.30
2022-10-14T13:58:40.907Z,1.24
2022-10-14T14:00:11.601Z,1.28
2022-10-14T14:00:59.586Z,1.42
2022-10-14T14:02:02.776Z,1.68
2022-10-14T14:03:11.125Z,2.08
2022-10-14T14:04:19.902Z,2.38
2022-10-14T14:05:23.126Z,2.09
2022-10-14T14:06:32.310Z,2.61
2022-10-14T14:07:59.643Z,1.81
2022-10-14T14:09:00.277Z,1.76
2022-10-14T14:10:06.260Z,1.82
2022-10-14T14:11:16.697Z,1.69
2022-10-14T14:12:13.268Z,1.88
2022-10-14T14:13:15.759Z,3.07
2022-10-14T14:14:36.518Z,3.34
2022-10-14T14:15:39.143Z,6.32
2022-10-14T14:17:49.900Z,7.48
2022-10-14T14:19:03.803Z,6.44
2022-10-14T14:19:56.290Z,7.19
2022-10-14T14:20:58.799Z,6.21
2022-10-14T14:22:26.655Z,7.36
2022-10-14T14:23:29.659Z,9.39
2022-10-14T14:24:31.868Z,10.09
2022-10-14T14:25:35.830Z,9.46
2022-10-14T14:26:39.023Z,9.85
2022-10-14T14:27:47.494Z,8.74
2022-10-14T14:28:49.489Z,9.59
2022-10-14T14:29:54.512Z,9.33
2022-10-14T14:30:56.640Z,8.90
2022-10-14T14:32:06.633Z,7.43
2022-10-14T14:33:08.456Z,8.44
2022-10-14T14:34:16.395Z,8.18
2022-10-14T14:35:22.066Z,7.18
2022-10-14T14:36:27.846Z,7.35
2022-10-14T14:38:37.896Z,7.23
2022-10-14T14:39:39.966Z,6.98
2022-10-14T14:40:42.168Z,7.42
2022-10-14T14:41:47.832Z,10.26
2022-10-14T14:42:53.417Z,12.84
2022-10-14T14:45:18.354Z,11.34
2022-10-14T14:46:38.350Z,11.13
2022-10-14T14:47:42.133Z,10.83
2022-10-14T14:48:49.775Z,9.12
2022-10-14T14:50:01.546Z,8.42